createdAt,value
2023-01-07T00:01:44.965Z,98580.34
2023-01-07T00:04:47.596Z,98578.50
2023-01-07T00:07:49.386Z,98576.75
2023-01-07T00:10:51.153Z,98583.00
2023-01-07T00:13:56.001Z,98576.81
2023-01-07T00:16:57.779Z,98586.53
2023-01-07T00:19:59.863Z,98591.78
2023-01-07T00:23:02.174Z,98583.75
2023-01-07T00:26:06.430Z,98582.00
2023-01-07T00:29:10.061Z,98570.44
2023-01-07T00:32:11.926Z,98577.44
2023-01-07T00:35:23.645Z,98567.72
2023-01-07T00:38:26.428Z,98576.50
2023-01-07T00:41:28.694Z,98568.53
2023-01-07T00:44:32.107Z,98568.50
2023-01-07T00:47:33.988Z,98569.38
2023-01-07T00:50:37.349Z,98567.59
2023-01-07T00:53:39.341Z,98568.38
2023-01-07T00:56:41.421Z,98570.13
2023-01-07T00:59:44.683Z,98555.81
2023-01-07T01:02:47.441Z,98547.00
2023-01-07T01:05:49.395Z,98537.28
2023-01-07T01:08:51.259Z,98537.22
2023-01-07T01:11:53.152Z,98536.34
2023-01-07T01:14:56.253Z,98529.44
2023-01-07T01:17:58.403Z,98535.44
2023-01-07T01:21:03.821Z,98542.47
2023-01-07T01:24:06.319Z,98550.38
2023-01-07T01:27:10.863Z,98541.50
2023-01-07T01:30:14.251Z,98544.03
2023-01-07T01:33:16.310Z,98535.13
2023-01-07T01:36:18.111Z,98543.91
2023-01-07T01:39:20.598Z,98536.88
2023-01-07T01:42:25.044Z,98541.13
2023-01-07T01:45:29.942Z,98550.03
2023-01-07T01:48:35.407Z,98549.09
2023-01-07T01:51:40.411Z,98543.78
2023-01-07T01:54:48.060Z,98539.34
2023-01-07T01:57:55.836Z,98549.94
2023-01-07T02:00:59.763Z,98537.56
2023-01-07T02:04:04.419Z,98545.56
2023-01-07T02:07:10.239Z,98536.75
2023-01-07T02:10:18.533Z,98542.00
2023-01-07T02:13:37.634Z,98540.34
2023-01-07T02:16:48.903Z,98533.28
2023-01-07T02:20:15.400Z,98534.16
2023-01-07T02:23:53.148Z,98531.44
2023-01-07T02:27:21.902Z,98532.41
2023-01-07T02:30:54.395Z,98530.63
2023-01-07T02:34:02.406Z,98531.56
2023-01-07T02:37:12.851Z,98525.31
2023-01-07T02:40:22.439Z,98520.00
2023-01-07T02:43:33.853Z,98519.13
2023-01-07T02:46:43.955Z,98522.66
2023-01-07T02:49:48.301Z,98519.84
2023-01-07T02:52:51.141Z,98520.78
2023-01-07T02:56:07.428Z,98509.22
2023-01-07T02:59:30.741Z,98512.72
2023-01-07T03:02:49.192Z,98506.56
2023-01-07T03:06:04.819Z,98497.69
2023-01-07T03:09:14.494Z,98500.38
2023-01-07T03:12:22.722Z,98496.84
2023-01-07T03:15:29.478Z,98497.78
2023-01-07T03:18:35.908Z,98493.41
2023-01-07T03:21:39.665Z,98486.34
2023-01-07T03:24:43.355Z,98490.75
2023-01-07T03:27:48.381Z,98487.94
2023-01-07T03:30:52.969Z,98487.16
2023-01-07T03:34:00.451Z,98481.75
2023-01-07T03:37:10.384Z,98476.41
2023-01-07T03:40:12.744Z,98478.25
2023-01-07T03:43:18.133Z,98467.69
2023-01-07T03:46:20.066Z,98474.78
2023-01-07T03:49:22.869Z,98464.16
2023-01-07T03:52:26.298Z,98462.44
2023-01-07T03:55:28.691Z,98471.28
2023-01-07T03:58:31.910Z,98460.84
2023-01-07T04:01:33.994Z,98467.97
2023-01-07T04:04:36.918Z,98460.94
2023-01-07T04:07:40.386Z,98451.47
2023-01-07T04:10:42.499Z,98459.41
2023-01-07T04:13:44.722Z,98451.56
2023-01-07T04:16:46.971Z,98445.47
2023-01-07T04:19:49.486Z,98446.59
2023-01-07T04:22:52.560Z,98443.16
2023-01-07T04:25:54.391Z,98428.97
2023-01-07T04:28:58.979Z,98422.75
2023-01-07T04:32:02.635Z,98426.19
2023-01-07T04:35:05.006Z,98419.16
2023-01-07T04:38:08.402Z,98412.91
2023-01-07T04:41:10.863Z,98419.16
2023-01-07T04:44:12.865Z,98411.41
2023-01-07T04:47:14.796Z,98404.50
2023-01-07T04:50:17.087Z,98396.63
2023-01-07T04:53:21.050Z,98404.50
2023-01-07T04:56:27.346Z,98404.56
2023-01-07T04:59:29.443Z,98402.94
2023-01-07T05:02:33.255Z,98394.34
2023-01-07T05:05:35.289Z,98395.38
2023-01-07T05:08:39.264Z,98392.06
2023-01-07T05:11:41.117Z,98392.19
2023-01-07T05:14:43.241Z,98393.22
2023-01-07T05:17:45.201Z,98393.22
2023-01-07T05:20:48.399Z,98394.13
2023-01-07T05:23:52.203Z,98394.00
2023-01-07T05:26:54.610Z,98392.19
2023-01-07T05:29:57.384Z,98395.00
2023-01-07T05:32:59.573Z,98397.72
2023-01-07T05:36:01.539Z,98395.25
2023-01-07T05:39:04.825Z,98393.63
2023-01-07T05:42:07.940Z,98383.19
2023-01-07T05:45:10.179Z,98392.94
2023-01-07T05:48:12.379Z,98396.53
2023-01-07T05:51:14.250Z,98390.50
2023-01-07T05:54:17.653Z,98394.81
2023-01-07T05:57:19.679Z,98383.97
2023-01-07T06:00:21.529Z,98379.53
2023-01-07T06:03:23.387Z,98385.72
2023-01-07T06:06:25.355Z,98385.78
2023-01-07T06:09:30.005Z,98384.78
2023-01-07T06:12:31.816Z,98383.00
2023-01-07T06:15:33.683Z,98375.97
2023-01-07T06:18:36.127Z,98376.88
2023-01-07T06:21:38.023Z,98371.56
2023-01-07T06:24:41.413Z,98367.94
2023-01-07T06:27:43.217Z,98369.72
2023-01-07T06:30:45.125Z,98363.41
2023-01-07T06:33:47.120Z,98368.78
2023-01-07T06:36:48.898Z,98373.16
2023-01-07T06:39:52.252Z,98369.72
2023-01-07T06:42:54.347Z,98380.28
2023-01-07T06:45:56.332Z,98372.38
2023-01-07T06:48:58.387Z,98370.47
2023-01-07T06:52:00.143Z,98376.47
2023-01-07T06:55:03.520Z,98368.44
2023-01-07T06:58:05.508Z,98367.56
2023-01-07T07:01:08.867Z,98374.63
2023-01-07T07:04:10.618Z,98365.06
2023-01-07T07:07:12.874Z,98366.59
2023-01-07T07:10:16.164Z,98365.72
2023-01-07T07:13:18.087Z,98356.94
2023-01-07T07:16:22.615Z,98362.25
2023-01-07T07:19:24.631Z,98357.75
2023-01-07T07:22:26.513Z,98358.69
2023-01-07T07:25:29.797Z,98357.00
2023-01-07T07:28:31.557Z,98352.63
2023-01-07T07:31:33.317Z,98346.47
2023-01-07T07:34:36.028Z,98349.06
2023-01-07T07:37:38.034Z,98354.44
2023-01-07T07:40:41.317Z,98344.72
2023-01-07T07:43:43.233Z,98338.56
2023-01-07T07:46:45.857Z,98329.03
2023-01-07T07:49:48.107Z,98337.72
2023-01-07T07:52:49.710Z,98338.56
2023-01-07T07:55:53.515Z,98334.28
2023-01-07T07:58:55.349Z,98323.03
2023-01-07T08:01:57.320Z,98333.41
2023-01-07T08:04:59.143Z,98314.81
2023-01-07T08:08:00.995Z,98316.31
2023-01-07T08:11:04.741Z,98326.81
2023-01-07T08:14:06.856Z,98323.28
2023-01-07T08:17:08.927Z,98328.53
2023-01-07T08:20:11.967Z,98331.97
2023-01-07T08:23:13.878Z,98319.53
2023-01-07T08:26:17.085Z,98331.75
2023-01-07T08:29:18.851Z,98323.78
2023-01-07T08:32:21.464Z,98325.38
2023-01-07T08:35:23.901Z,98327.09
2023-01-07T08:38:27.479Z,98317.31
2023-01-07T08:41:30.888Z,98319.72
2023-01-07T08:44:34.679Z,98310.16
2023-01-07T08:47:36.544Z,98317.84
2023-01-07T08:50:38.419Z,98318.69
2023-01-07T08:53:40.244Z,98323.78
2023-01-07T08:56:43.679Z,98313.94
2023-01-07T08:59:45.566Z,98311.22
2023-01-07T09:02:47.496Z,98314.56
2023-01-07T09:05:49.339Z,98319.63
2023-01-07T09:08:51.520Z,98309.00
2023-01-07T09:11:57.878Z,98314.31
2023-01-07T09:15:00.339Z,98307.41
2023-01-07T09:18:05.091Z,98290.03
2023-01-07T09:21:07.830Z,98301.47
2023-01-07T09:24:09.917Z,98298.16
2023-01-07T09:27:13.300Z,98295.41
2023-01-07T09:30:15.294Z,98299.88
2023-01-07T09:33:17.099Z,98300.66
2023-01-07T09:36:19.058Z,98293.47
2023-01-07T09:39:20.984Z,98293.31
2023-01-07T09:42:34.444Z,98290.16
2023-01-07T09:45:40.812Z,98291.72
2023-01-07T09:48:46.267Z,98294.38
2023-01-07T09:51:52.822Z,98292.41
2023-01-07T09:55:03.536Z,98289.47
2023-01-07T09:58:14.187Z,98282.50
2023-01-07T10:01:25.702Z,98276.41
2023-01-07T10:04:38.168Z,98274.94
2023-01-07T10:07:43.837Z,98273.31
2023-01-07T10:10:52.086Z,98264.84
2023-01-07T10:14:10.053Z,98262.38
2023-01-07T10:17:23.078Z,98252.41
2023-01-07T10:20:35.002Z,98255.78
2023-01-07T10:23:39.686Z,98250.66
2023-01-07T10:26:46.300Z,98242.38
2023-01-07T10:29:55.304Z,98248.88
2023-01-07T10:33:04.249Z,98239.44
2023-01-07T10:36:17.532Z,98240.34
2023-01-07T10:39:26.954Z,98245.50
2023-01-07T10:42:35.435Z,98244.34
2023-01-07T10:45:48.501Z,98240.66
2023-01-07T10:49:07.564Z,98234.56
2023-01-07T10:52:15.942Z,98232.06
2023-01-07T10:55:34.545Z,98228.59
2023-01-07T10:58:40.284Z,98228.66
2023-01-07T11:01:48.607Z,98231.38
2023-01-07T11:04:50.585Z,98231.25
2023-01-07T11:07:56.357Z,98229.41
2023-01-07T11:10:58.933Z,98217.16
2023-01-07T11:14:04.483Z,98216.03
2023-01-07T11:17:15.678Z,98215.00
2023-01-07T11:20:41.815Z,98214.03
2023-01-07T11:23:44.314Z,98205.19
2023-01-07T11:26:49.183Z,98199.69
2023-01-07T11:29:57.310Z,98194.28
2023-01-07T11:33:04.605Z,98193.50
2023-01-07T11:36:07.701Z,98182.94
2023-01-07T11:39:11.186Z,98177.66
2023-01-07T11:42:45.985Z,98175.00
2023-01-07T11:46:21.286Z,98162.53
2023-01-07T11:49:23.163Z,98161.66
2023-01-07T11:52:24.998Z,98154.53
2023-01-07T11:55:27.877Z,98129.34
2023-01-07T11:58:31.969Z,98129.69
2023-01-07T12:01:42.136Z,98125.94
2023-01-07T12:04:45.397Z,98124.19
2023-01-07T12:07:48.516Z,98114.66
2023-01-07T12:10:55.785Z,98094.56
2023-01-07T12:14:08.418Z,98099.63
2023-01-07T12:17:16.144Z,98090.88
2023-01-07T12:20:51.191Z,98091.81
2023-01-07T12:24:07.973Z,98078.59
2023-01-07T12:27:22.186Z,98083.28
2023-01-07T12:30:51.630Z,98076.22
2023-01-07T12:34:08.922Z,98069.25
2023-01-07T12:37:20.017Z,98056.97
2023-01-07T12:40:30.562Z,98060.94
2023-01-07T12:43:35.855Z,98051.16
2023-01-07T12:46:43.073Z,98052.66
2023-01-07T12:49:51.742Z,98042.16
2023-01-07T12:53:00.105Z,98034.06
2023-01-07T12:56:11.964Z,98022.69
2023-01-07T12:59:46.395Z,98014.84
2023-01-07T13:02:51.490Z,98007.91
2023-01-07T13:05:56.641Z,98014.06
2023-01-07T13:09:07.595Z,98015.88
2023-01-07T13:12:41.106Z,98010.41
2023-01-07T13:15:44.843Z,97987.56
2023-01-07T13:18:50.762Z,97988.25
2023-01-07T13:21:52.859Z,97992.88
2023-01-07T13:25:12.488Z,97975.16
2023-01-07T13:28:50.370Z,97972.22
2023-01-07T13:32:13.217Z,97963.41
2023-01-07T13:35:44.149Z,97964.69
2023-01-07T13:39:10.357Z,97952.41
2023-01-07T13:42:22.919Z,97964.63
2023-01-07T13:45:28.354Z,97956.72
2023-01-07T13:48:33.121Z,97950.34
2023-01-07T13:51:38.430Z,97949.59
2023-01-07T13:54:56.972Z,97945.75
2023-01-07T13:58:00.751Z,97934.50
2023-01-07T14:01:05.632Z,97928.47
2023-01-07T14:04:34.977Z,97930.03
2023-01-07T14:07:46.335Z,97919.56
2023-01-07T14:10:53.355Z,97909.09
2023-01-07T14:14:06.466Z,97915.44
2023-01-07T14:17:18.686Z,97917.31
2023-01-07T14:20:32.529Z,97917.97
2023-01-07T14:23:44.036Z,97913.72
2023-01-07T14:26:56.680Z,97923.59
2023-01-07T14:30:16.922Z,97923.59
2023-01-07T14:33:24.949Z,97917.63
2023-01-07T14:37:11.516Z,97907.13
2023-01-07T14:40:58.956Z,97912.69
2023-01-07T14:44:20.278Z,97913.47
2023-01-07T14:47:54.605Z,97910.91
2023-01-07T14:51:07.937Z,97907.59
2023-01-07T14:54:38.481Z,97901.56
2023-01-07T14:57:52.997Z,97895.41
2023-01-07T15:01:17.182Z,97891.22
2023-01-07T15:04:51.751Z,97883.31
2023-01-07T15:08:19.808Z,97877.31
2023-01-07T15:11:44.754Z,97875.50
2023-01-07T15:15:13.655Z,97881.59
2023-01-07T15:18:15.965Z,97879.19
2023-01-07T15:21:30.878Z,97872.06
2023-01-07T15:24:40.518Z,97863.38
2023-01-07T15:27:49.970Z,97851.03
2023-01-07T15:31:00.656Z,97849.47
2023-01-07T15:34:10.689Z,97840.06
2023-01-07T15:37:15.325Z,97831.22
2023-01-07T15:40:18.897Z,97829.50
2023-01-07T15:43:24.816Z,97829.75
2023-01-07T15:46:27.561Z,97820.84
2023-01-07T15:49:29.850Z,97817.16
2023-01-07T15:52:33.166Z,97820.69
2023-01-07T15:55:38.703Z,97812.78
2023-01-07T15:58:47.486Z,97821.34
2023-01-07T16:01:50.827Z,97824.69
2023-01-07T16:04:57.991Z,97814.25
2023-01-07T16:08:01.861Z,97817.56
2023-01-07T16:11:06.219Z,97799.75
2023-01-07T16:14:14.221Z,97799.06
2023-01-07T16:17:16.606Z,97786.72
2023-01-07T16:20:26.255Z,97788.44
2023-01-07T16:23:32.667Z,97786.72
2023-01-07T16:26:40.088Z,97789.28
2023-01-07T16:29:50.056Z,97781.47
2023-01-07T16:32:54.715Z,97782.38
2023-01-07T16:35:59.191Z,97785.69
2023-01-07T16:39:14.064Z,97771.63
2023-01-07T16:42:20.024Z,97768.97
2023-01-07T16:45:28.650Z,97768.88
2023-01-07T16:48:30.620Z,97765.28
2023-01-07T16:51:41.417Z,97766.16
2023-01-07T16:54:46.009Z,97755.75
2023-01-07T16:57:50.342Z,97753.81
2023-01-07T17:00:54.233Z,97744.19
2023-01-07T17:03:59.611Z,97742.31
2023-01-07T17:07:02.905Z,97747.63
2023-01-07T17:10:07.633Z,97742.41
2023-01-07T17:13:32.861Z,97748.50
2023-01-07T17:16:36.965Z,97747.56
2023-01-07T17:19:40.694Z,97728.19
2023-01-07T17:22:43.296Z,97725.81
2023-01-07T17:25:48.637Z,97724.09
2023-01-07T17:28:52.751Z,97724.94
2023-01-07T17:31:54.636Z,97716.38
2023-01-07T17:35:01.177Z,97728.72
2023-01-07T17:38:05.870Z,97705.09
2023-01-07T17:41:32.800Z,97699.19
2023-01-07T17:44:34.753Z,97694.94
2023-01-07T17:47:36.537Z,97700.25
2023-01-07T17:50:38.330Z,97706.38
2023-01-07T17:53:45.741Z,97692.84
2023-01-07T17:56:49.306Z,97685.34
2023-01-07T17:59:51.914Z,97694.16
2023-01-07T18:02:53.615Z,97686.97
2023-01-07T18:05:55.574Z,97674.94
2023-01-07T18:08:57.628Z,97684.06
2023-01-07T18:12:19.317Z,97689.25
2023-01-07T18:15:24.261Z,97686.66
2023-01-07T18:18:28.536Z,97690.16
2023-01-07T18:21:30.331Z,97691.19
2023-01-07T18:24:32.256Z,97697.75
2023-01-07T18:27:35.444Z,97690.78
2023-01-07T18:30:38.972Z,97683.75
2023-01-07T18:33:40.961Z,97685.63
2023-01-07T18:36:42.912Z,97681.50
2023-01-07T18:39:44.728Z,97676.19
2023-01-07T18:42:48.281Z,97676.19
2023-01-07T18:45:50.168Z,97680.47
2023-01-07T18:48:52.394Z,97676.19
2023-01-07T18:51:54.279Z,97674.38
2023-01-07T18:54:56.284Z,97670.91
2023-01-07T18:57:59.626Z,97676.47
2023-01-07T19:01:03.868Z,97669.44
2023-01-07T19:04:06.780Z,97653.69
2023-01-07T19:07:09.555Z,97670.47
2023-01-07T19:10:11.567Z,97668.88
2023-01-07T19:13:14.663Z,97674.09
2023-01-07T19:16:16.598Z,97668.66
2023-01-07T19:19:18.561Z,97683.09
2023-01-07T19:22:20.457Z,97675.91
2023-01-07T19:25:22.218Z,97685.66
2023-01-07T19:28:26.272Z,97668.25
2023-01-07T19:31:28.209Z,97665.53
2023-01-07T19:34:30.336Z,97654.25
2023-01-07T19:37:32.256Z,97652.09
2023-01-07T19:40:34.168Z,97648.66
2023-01-07T19:43:39.108Z,97644.53
2023-01-07T19:46:42.755Z,97627.19
2023-01-07T19:49:45.558Z,97616.41
2023-01-07T19:52:47.521Z,97616.31
2023-01-07T19:55:50.620Z,97607.59
2023-01-07T19:58:54.123Z,97609.94
2023-01-07T20:05:16.340Z,97584.56
2023-01-07T20:08:18.410Z,97596.34
2023-01-07T20:11:20.282Z,97581.44
2023-01-07T20:14:24.162Z,97568.47
2023-01-07T20:17:26.206Z,97571.78
2023-01-07T20:20:28.061Z,97567.31
2023-01-07T20:23:30.125Z,97563.97
2023-01-07T20:26:34.184Z,97556.03
2023-01-07T20:29:38.763Z,97563.97
2023-01-07T20:32:40.863Z,97557.00
2023-01-07T20:35:43.378Z,97563.03
2023-01-07T20:38:46.881Z,97559.75
2023-01-07T20:41:48.861Z,97553.56
2023-01-07T20:44:52.473Z,97570.28
2023-01-07T20:47:54.540Z,97558.19
2023-01-07T20:50:56.801Z,97563.34
2023-01-07T20:53:58.614Z,97568.88
2023-01-07T20:57:00.372Z,97573.34
2023-01-07T21:00:04.838Z,97566.22
2023-01-07T21:03:07.083Z,97560.34
2023-01-07T21:06:10.743Z,97576.19
2023-01-07T21:09:12.643Z,97564.19
2023-01-07T21:12:14.587Z,97554.19
2023-01-07T21:15:18.234Z,97533.63
2023-01-07T21:18:20.857Z,97545.63
2023-01-07T21:21:26.241Z,97535.84
2023-01-07T21:24:28.237Z,97532.06
2023-01-07T21:27:30.044Z,97543.34
2023-01-07T21:30:33.658Z,97530.72
2023-01-07T21:33:36.899Z,97525.34
2023-01-07T21:36:40.406Z,97515.66
2023-01-07T21:39:42.251Z,97524.16
2023-01-07T21:42:44.349Z,97511.66
2023-01-07T21:45:47.971Z,97506.03
2023-01-07T21:48:50.324Z,97512.84
2023-01-07T21:51:52.191Z,97519.19
2023-01-07T21:54:56.430Z,97520.81
2023-01-07T21:57:58.439Z,97514.72
2023-01-07T22:01:01.802Z,97517.28
2023-01-07T22:04:04.164Z,97509.34
2023-01-07T22:07:06.216Z,97512.06
2023-01-07T22:10:09.820Z,97506.91
2023-01-07T22:13:11.575Z,97516.91
2023-01-07T22:16:15.051Z,97525.63
2023-01-07T22:19:16.917Z,97519.56
2023-01-07T22:22:20.948Z,97525.81
2023-01-07T22:25:22.846Z,97525.47
2023-01-07T22:28:25.165Z,97519.38
2023-01-07T22:31:29.286Z,97508.63
2023-01-07T22:34:32.265Z,97504.88
2023-01-07T22:37:34.912Z,97510.19
2023-01-07T22:40:37.901Z,97501.44
2023-01-07T22:43:40.133Z,97499.56
2023-01-07T22:46:44.661Z,97502.84
2023-01-07T22:49:48.458Z,97501.97
2023-01-07T22:52:50.284Z,97488.69
2023-01-07T22:55:52.420Z,97492.84
2023-01-07T22:58:54.111Z,97495.50
2023-01-07T23:01:57.846Z,97475.88
2023-01-07T23:04:59.896Z,97481.47
2023-01-07T23:08:01.896Z,97482.41
2023-01-07T23:11:04.087Z,97481.47
2023-01-07T23:14:05.867Z,97474.56
2023-01-07T23:17:10.553Z,97454.28
2023-01-07T23:20:12.502Z,97448.03
2023-01-07T23:23:14.395Z,97442.72
2023-01-07T23:26:16.353Z,97438.34
2023-01-07T23:29:18.772Z,97441.88
2023-01-07T23:32:21.927Z,97441.94
2023-01-07T23:35:23.818Z,97429.03
2023-01-07T23:38:26.315Z,97442.22
2023-01-07T23:41:28.192Z,97447.34
2023-01-07T23:44:30.447Z,97441.25
2023-01-07T23:47:33.519Z,97436.97
2023-01-07T23:50:35.453Z,97436.09
2023-01-07T23:53:37.455Z,97434.16
2023-01-07T23:56:39.460Z,97434.34
2023-01-07T23:59:42.179Z,97418.47
